Time;durP1;ratioP1;P1;durP2;ratioP2;P2;SDS_P1;SDS_P2;PMS_P1;PMS_P2;Temp;Humidity;BMP_temperature;BMP_pressure;BME280_temperature;BME280_humidity;BME280_pressure;Samples;Min_cycle;Max_cycle;Signal;HPM_P1;HPM_P2
2022/01/21 00:01:38;;;;;;;19.75;5.00;;;;;;;-1.10;100.00;103226.44;4960374;28;20050;-91
2022/01/21 00:04:12;;;;;;;21.55;4.88;;;;;;;-0.77;100.00;103276.25;4961039;28;20105;-91
2022/01/21 00:06:39;;;;;;;24.42;5.07;;;;;;;-1.38;100.00;103159.56;4961201;28;20378;-91
2022/01/21 00:09:05;;;;;;;23.83;4.70;;;;;;;-1.36;100.00;103163.00;4965663;28;20031;-90
2022/01/21 00:11:31;;;;;;;26.55;4.63;;;;;;;-0.97;100.00;103228.47;4973564;28;20406;-91
2022/01/21 00:13:58;;;;;;;25.23;4.43;;;;;;;-1.18;100.00;103201.13;4947252;28;20035;-91
2022/01/21 00:16:26;;;;;;;23.83;5.10;;;;;;;-1.12;100.00;103217.66;4960448;28;20050;-91
2022/01/21 00:19:05;;;;;;;19.52;4.28;;;;;;;-1.33;100.00;103171.72;4960153;28;20454;-91
2022/01/21 00:30:20;;;;;;;19.58;4.30;;;;;;;-0.62;100.00;103269.25;4977131;28;20474;-90
2022/01/21 00:32:48;;;;;;;20.95;4.97;;;;;;;-0.66;100.00;103277.50;4959779;28;20117;-91
2022/01/21 00:35:15;;;;;;;20.30;4.85;;;;;;;-1.13;100.00;103210.59;4960042;28;20054;-91
2022/01/21 00:37:41;;;;;;;22.83;5.10;;;;;;;-0.94;100.00;103234.47;4959802;28;20027;-91
2022/01/21 00:40:13;;;;;;;21.23;4.30;;;;;;;-0.98;100.00;103232.91;4959944;28;20161;-90
2022/01/21 00:45:11;;;;;;;24.20;4.53;;;;;;;-1.05;100.00;103231.50;4959999;28;20100;-91
2022/01/21 00:47:37;;;;;;;17.38;3.55;;;;;;;-1.45;100.00;103169.66;4975736;28;20034;-91
2022/01/21 00:50:03;;;;;;;17.17;4.10;;;;;;;-1.36;100.00;103186.97;4958933;28;20070;-91
2022/01/21 00:52:28;;;;;;;21.45;3.90;;;;;;;-1.32;100.00;103200.03;4959666;28;20074;-90
2022/01/21 00:54:54;;;;;;;22.88;3.70;;;;;;;-1.51;100.00;103173.50;4943607;28;20121;-91
2022/01/21 00:57:19;;;;;;;20.67;4.03;;;;;;;-1.16;100.00;103228.56;4976929;28;20030;-91
2022/01/21 00:59:48;;;;;;;20.02;3.75;;;;;;;-1.55;100.00;103169.31;4959466;28;20035;-91
2022/01/21 01:02:16;;;;;;;21.45;4.10;;;;;;;-1.33;100.00;103217.00;4959564;28;20078;-91
2022/01/21 01:04:42;;;;;;;15.82;3.65;;;;;;;-1.19;100.00;103242.06;4959512;28;20031;-91
2022/01/21 01:07:08;;;;;;;23.65;4.07;;;;;;;-1.14;100.00;103261.31;4959378;28;20031;-91
2022/01/21 01:09:34;;;;;;;26.75;4.80;;;;;;;-1.64;100.00;103180.41;4959068;28;20147;-90
2022/01/21 01:20:08;;;;;;;18.52;3.75;;;;;;;-1.58;100.00;103182.75;4975383;28;20058;-90
2022/01/21 01:22:54;;;;;;;21.15;3.85;;;;;;;-1.26;100.00;103230.84;4957959;28;20037;-89
2022/01/21 01:28:05;;;;;;;19.48;3.85;;;;;;;-1.31;100.00;103239.06;4961340;28;20045;-88
2022/01/21 01:30:35;;;;;;;26.52;4.38;;;;;;;-1.10;100.00;103265.53;4958254;28;20125;-90
2022/01/21 01:33:02;;;;;;;18.58;4.00;;;;;;;-1.65;100.00;103181.34;4974828;28;20035;-91
2022/01/21 01:35:32;;;;;;;23.75;4.03;;;;;;;-1.74;100.00;103157.84;4958484;28;20034;-90
2022/01/21 01:38:22;;;;;;;23.88;4.57;;;;;;;-1.67;100.00;103165.47;4958491;28;20033;-90
2022/01/21 01:40:58;;;;;;;21.85;4.53;;;;;;;-1.62;100.00;103174.06;4958161;28;20031;-89
2022/01/21 01:51:21;;;;;;;21.02;4.65;;;;;;;-1.10;100.00;103266.41;4975730;28;20038;-90
2022/01/21 01:54:09;;;;;;;20.73;3.55;;;;;;;-1.20;100.00;103250.97;4974573;28;20035;-89
2022/01/21 01:56:49;;;;;;;24.23;4.10;;;;;;;-1.33;100.00;103221.44;4974980;28;20085;-90
2022/01/21 01:59:17;;;;;;;19.63;3.88;;;;;;;-1.56;100.00;103194.19;4958553;28;20086;-91
2022/01/21 02:01:42;;;;;;;22.65;3.63;;;;;;;-1.36;100.00;103219.78;4974373;28;20472;-90
2022/01/21 02:04:08;;;;;;;18.67;3.80;;;;;;;-1.72;100.00;103163.97;4975206;28;20034;-91
2022/01/21 02:06:37;;;;;;;20.30;4.00;;;;;;;-1.81;100.00;103147.50;4975402;28;20030;-90
2022/01/21 02:09:03;;;;;;;20.02;3.65;;;;;;;-1.55;100.00;103187.94;4975070;28;20035;-90
2022/01/21 02:11:28;;;;;;;21.45;4.00;;;;;;;-1.77;100.00;103157.06;4958100;28;20081;-90
2022/01/21 02:13:59;;;;;;;27.98;4.45;;;;;;;-1.38;100.00;103215.50;4957068;28;20491;-90
2022/01/21 02:21:47;;;;;;;19.05;3.65;;;;;;;-1.50;100.00;103209.00;4974991;28;20093;-90
2022/01/21 02:24:31;;;;;;;21.30;3.88;;;;;;;-1.84;100.00;103160.97;4957736;28;20031;-90
2022/01/21 02:26:59;;;;;;;20.25;4.00;;;;;;;-1.82;100.00;103161.75;4957553;28;20387;-90
2022/01/21 02:29:31;;;;;;;21.83;4.25;;;;;;;-1.86;100.00;103162.88;4974451;28;20487;-90
2022/01/21 02:32:01;;;;;;;19.52;3.97;;;;;;;-1.91;100.00;103159.56;4973355;28;20038;-90
2022/01/21 02:34:31;;;;;;;20.33;3.92;;;;;;;-1.30;100.00;103258.56;4957652;28;20543;-90
2022/01/21 02:36:57;;;;;;;21.98;4.13;;;;;;;-1.81;100.00;103171.47;4957381;28;20419;-90
2022/01/21 02:39:26;;;;;;;18.60;3.97;;;;;;;-1.29;100.00;103253.16;4973543;28;20037;-90
2022/01/21 02:41:51;;;;;;;16.85;3.78;;;;;;;-1.53;100.00;103204.69;4957198;28;20062;-90
2022/01/21 02:44:20;;;;;;;22.17;3.90;;;;;;;-1.23;100.00;103262.63;4957393;28;20031;-89
2022/01/21 02:47:00;;;;;;;23.33;4.25;;;;;;;-1.44;100.00;103214.00;4957573;28;20037;-91
2022/01/21 02:49:30;;;;;;;19.77;3.95;;;;;;;-1.84;100.00;103153.00;4942341;28;20394;-91
2022/01/21 02:52:02;;;;;;;22.60;4.05;;;;;;;-1.83;100.00;103160.06;4957743;28;20372;-91
2022/01/21 02:54:31;;;;;;;21.73;4.28;;;;;;;-1.52;100.00;103216.19;4958006;28;20391;-92
2022/01/21 02:57:03;;;;;;;22.05;4.38;;;;;;;-1.81;100.00;103160.81;4957784;28;20061;-91
2022/01/21 02:59:36;;;;;;;17.42;3.55;;;;;;;-1.46;100.00;103227.41;4958141;28;20403;-91
2022/01/21 03:02:06;;;;;;;19.63;3.58;;;;;;;-1.87;100.00;103169.13;4958791;28;20035;-92
2022/01/21 03:04:52;;;;;;;16.25;3.75;;;;;;;-1.62;100.00;103214.00;4961664;28;20027;-91
2022/01/21 03:07:18;;;;;;;23.77;4.22;;;;;;;-1.48;100.00;103241.72;4967879;28;20038;-90
2022/01/21 03:09:44;;;;;;;22.98;4.03;;;;;;;-1.31;100.00;103272.84;4971516;28;20077;-90
2022/01/21 03:12:10;;;;;;;20.63;3.85;;;;;;;-1.27;100.00;103280.59;4968897;28;20062;-90
2022/01/21 03:14:38;;;;;;;23.42;4.68;;;;;;;-1.86;100.00;103177.94;4959273;28;20502;-91
2022/01/21 03:17:03;;;;;;;18.58;3.88;;;;;;;-1.47;100.00;103232.81;4957664;28;20053;-91
2022/01/21 03:19:32;;;;;;;23.88;3.83;;;;;;;-2.00;100.00;103158.22;4973755;28;20402;-91
2022/01/21 03:21:58;;;;;;;18.05;3.95;;;;;;;-1.72;100.00;103204.75;4957504;28;20027;-91
2022/01/21 03:24:23;;;;;;;21.70;3.80;;;;;;;-1.96;100.00;103164.25;4957217;28;20030;-91
2022/01/21 03:26:49;;;;;;;18.65;4.07;;;;;;;-1.53;100.00;103238.44;4957509;28;20042;-91
2022/01/21 03:29:17;;;;;;;21.27;4.13;;;;;;;-1.29;100.00;103271.81;4957124;28;20043;-92
2022/01/21 03:31:45;;;;;;;23.35;3.85;;;;;;;-1.61;100.00;103229.03;4941429;28;20053;-92
2022/01/21 03:34:11;;;;;;;22.20;3.90;;;;;;;-1.86;100.00;103184.16;4957538;28;20047;-91
2022/01/21 03:36:40;;;;;;;21.83;4.47;;;;;;;-1.87;100.00;103182.44;4957442;28;20035;-91
2022/01/21 03:39:09;;;;;;;21.58;4.28;;;;;;;-1.81;100.00;103194.56;4957074;28;20043;-91
2022/01/21 03:41:40;;;;;;;24.20;4.43;;;;;;;-1.47;100.00;103254.97;4972833;28;20062;-92
2022/01/21 03:44:05;;;;;;;23.40;3.80;;;;;;;-1.81;100.00;103198.09;4973691;28;20026;-92
2022/01/21 03:46:40;;;;;;;17.65;4.20;;;;;;;-1.84;100.00;103190.25;4941308;28;20039;-92
2022/01/21 03:49:08;;;;;;;21.27;3.45;;;;;;;-1.45;100.00;103254.88;4957422;28;20126;-91
2022/01/21 03:51:44;;;;;;;22.27;3.80;;;;;;;-1.86;100.00;103183.28;4941708;28;20043;-92
2022/01/21 03:54:14;;;;;;;19.85;3.90;;;;;;;-1.51;100.00;103245.41;4957222;28;20058;-92
2022/01/21 03:56:40;;;;;;;17.65;3.75;;;;;;;-1.79;100.00;103203.31;4957049;28;20026;-92
2022/01/21 03:59:07;;;;;;;16.73;3.65;;;;;;;-1.93;100.00;103188.06;4972952;28;20062;-91
2022/01/21 04:01:33;;;;;;;19.23;3.60;;;;;;;-1.36;100.00;103286.38;4957088;28;20057;-92
2022/01/21 04:04:05;;;;;;;20.33;4.40;;;;;;;-1.96;100.00;103178.41;4941164;28;20057;-91
2022/01/21 04:06:31;;;;;;;19.70;3.42;;;;;;;-1.80;100.00;103206.91;4957145;28;20407;-92
2022/01/21 04:09:00;;;;;;;17.15;3.63;;;;;;;-1.91;100.00;103191.50;4957085;28;20038;-92
2022/01/21 04:11:27;;;;;;;21.80;3.80;;;;;;;-1.95;100.00;103188.13;4957307;28;20391;-91
2022/01/21 04:13:55;;;;;;;17.48;3.35;;;;;;;-1.34;100.00;103291.66;4957038;28;20066;-92
2022/01/21 04:16:21;;;;;;;16.10;3.47;;;;;;;-1.31;100.00;103288.81;4938779;28;20407;-91
2022/01/21 04:18:47;;;;;;;20.65;3.15;;;;;;;-1.91;100.00;103186.16;4957211;28;20058;-91
2022/01/21 04:21:18;;;;;;;18.00;2.92;;;;;;;-1.44;100.00;103269.94;4957034;28;20039;-91
2022/01/21 04:23:56;;;;;;;18.77;3.20;;;;;;;-1.51;100.00;103234.75;4942812;28;20129;-91
2022/01/21 04:26:22;;;;;;;19.83;3.55;;;;;;;-1.67;100.00;103209.84;4960632;28;20042;-91
2022/01/21 04:28:47;;;;;;;19.02;3.67;;;;;;;-1.52;100.00;103248.13;4944242;28;20047;-91
2022/01/21 04:31:16;;;;;;;17.80;3.28;;;;;;;-1.52;100.00;103243.69;4959942;28;20026;-91
2022/01/21 04:33:44;;;;;;;16.30;3.03;;;;;;;-1.43;100.00;103253.88;4959477;28;20026;-91
2022/01/21 04:36:10;;;;;;;15.02;2.85;;;;;;;-1.85;100.00;103175.22;4959753;28;20038;-91
2022/01/21 04:38:38;;;;;;;12.82;3.28;;;;;;;-1.51;100.00;103236.56;4960135;28;20035;-91
2022/01/21 04:41:21;;;;;;;19.02;2.72;;;;;;;-1.54;100.00;103221.59;4976131;28;20066;-91
2022/01/21 04:49:14;;;;;;;15.07;2.83;;;;;;;-1.71;100.00;103200.28;4976191;28;20126;-91
2022/01/21 04:51:49;;;;;;;17.92;3.13;;;;;;;-1.61;100.00;103228.16;4959498;28;20038;-90
2022/01/21 04:54:15;;;;;;;18.08;2.70;;;;;;;-1.45;100.00;103236.25;4959735;28;20042;-91
2022/01/21 04:56:40;;;;;;;20.30;3.33;;;;;;;-1.19;100.00;103279.34;4959711;28;20053;-91
2022/01/21 04:59:09;;;;;;;22.02;3.10;;;;;;;-1.81;100.00;103167.97;4959535;28;20531;-91
2022/01/21 05:01:35;;;;;;;15.43;3.53;;;;;;;-1.70;100.00;103192.22;4959302;28;20091;-91
2022/01/21 05:04:00;;;;;;;19.98;3.28;;;;;;;-1.73;100.00;103179.06;4943656;28;20035;-91
2022/01/21 05:06:27;;;;;;;18.65;3.60;;;;;;;-1.17;100.00;103267.66;4959180;28;20061;-91
2022/01/21 05:08:56;;;;;;;18.55;3.28;;;;;;;-1.33;100.00;103238.31;4943107;28;20419;-91
2022/01/21 05:11:25;;;;;;;20.75;4.03;;;;;;;-1.72;100.00;103166.63;4943453;28;20446;-90
2022/01/21 05:13:59;;;;;;;21.10;3.45;;;;;;;-1.39;100.00;103211.94;4958342;28;20041;-91
2022/01/21 05:19:00;;;;;;;20.75;3.92;;;;;;;-1.65;100.00;103168.03;4975430;28;20434;-91
2022/01/21 05:21:25;;;;;;;20.55;4.53;;;;;;;-1.02;100.00;103270.47;4976517;28;20022;-91
2022/01/21 05:23:54;;;;;;;18.10;4.28;;;;;;;-1.63;100.00;103180.31;4975499;28;20118;-91
2022/01/21 05:26:35;;;;;;;24.42;4.50;;;;;;;-1.24;100.00;103245.81;4942898;28;20086;-91
2022/01/21 05:29:03;;;;;;;21.85;4.68;;;;;;;-1.67;100.00;103170.78;4951745;28;20476;-91
2022/01/21 05:31:40;;;;;;;20.67;4.68;;;;;;;-1.29;100.00;103242.50;4923898;29;20063;-91
2022/01/21 05:34:06;;;;;;;18.88;5.07;;;;;;;-1.29;100.00;103241.66;4955562;28;20447;-91
2022/01/21 05:36:37;;;;;;;22.80;4.88;;;;;;;-1.33;100.00;103242.75;4955385;28;20527;-91
2022/01/21 05:39:03;;;;;;;17.35;5.15;;;;;;;-1.74;100.00;103182.69;4925468;29;20037;-91
2022/01/21 05:41:31;;;;;;;27.83;6.25;;;;;;;-1.73;100.00;103188.84;4939354;29;20114;-90
2022/01/21 05:44:13;;;;;;;22.30;5.95;;;;;;;-1.75;100.00;103191.59;4939116;29;20023;-90
2022/01/21 05:49:07;;;;;;;23.45;5.50;;;;;;;-1.43;100.00;103245.03;4956465;28;20392;-90
2022/01/21 05:51:32;;;;;;;18.85;5.90;;;;;;;-1.82;100.00;103179.53;4955120;29;20035;-89
2022/01/21 05:53:58;;;;;;;24.08;7.25;;;;;;;-1.36;100.00;103257.06;4938833;29;20086;-89
2022/01/21 05:56:30;;;;;;;24.92;7.15;;;;;;;-1.44;100.00;103249.47;4954513;28;20035;-91
2022/01/21 05:58:56;;;;;;;26.45;7.63;;;;;;;-1.83;100.00;103183.13;4939577;29;20408;-92
2022/01/21 06:01:31;;;;;;;24.00;7.38;;;;;;;-1.39;100.00;103259.03;4923245;29;20036;-91
2022/01/21 06:04:06;;;;;;;24.95;7.30;;;;;;;-1.81;100.00;103197.22;4939802;29;20548;-91
2022/01/21 06:06:32;;;;;;;22.02;7.40;;;;;;;-1.84;100.00;103187.59;4955318;29;20035;-90
2022/01/21 06:09:04;;;;;;;26.75;7.82;;;;;;;-1.88;100.00;103191.34;4944133;29;20034;-91
2022/01/21 06:11:30;;;;;;;24.98;7.60;;;;;;;-1.84;100.00;103195.56;4956128;29;20547;-90
2022/01/21 06:13:55;;;;;;;24.00;7.65;;;;;;;-1.85;100.00;103191.19;4946052;29;20091;-90
2022/01/21 06:16:21;;;;;;;27.55;8.23;;;;;;;-1.81;100.00;103195.41;4948914;29;20059;-90
2022/01/21 06:18:47;;;;;;;20.85;8.15;;;;;;;-1.79;100.00;103203.31;4943033;29;20490;-90
2022/01/21 06:21:13;;;;;;;21.80;8.38;;;;;;;-1.82;100.00;103206.16;4955149;28;20484;-90
2022/01/21 06:23:38;;;;;;;25.95;8.40;;;;;;;-1.21;100.00;103305.19;4938449;29;20476;-90
2022/01/21 06:26:13;;;;;;;31.25;9.10;;;;;;;-1.55;100.00;103253.63;4922938;29;20035;-94
2022/01/21 06:29:03;;;;;;;28.42;8.90;;;;;;;-1.42;100.00;103268.91;4927619;28;20074;-94
2022/01/21 06:31:32;;;;;;;30.17;9.23;;;;;;;-1.87;100.00;103193.06;4943199;28;20070;-96
2022/01/21 06:49:46;;;;;;;27.73;10.38;;;;;;;-1.27;100.00;103309.91;4888161;28;20147;-92
2022/01/21 06:53:23;;;;;;;30.55;10.90;;;;;;;-1.42;100.00;103265.38;4962397;28;20038;-93
2022/01/21 06:59:52;;;;;;;26.83;11.32;;;;;;;-1.28;100.00;103249.56;4994206;28;20502;-96
2022/01/21 16:07:30;;;;;;;11.88;2.90;;;;;;;4.34;100.00;103248.22;5067272;23;20076;-93
2022/01/21 16:16:55;;;;;;;18.45;3.55;;;;;;;3.63;100.00;103125.44;4881889;29;20441;-95
2022/01/21 21:26:39;;;;;;;19.25;5.43;;;;;;;3.34;99.30;103267.09;5389020;23;20266;-93
2022/01/21 22:14:02;;;;;;;16.90;5.13;;;;;;;3.08;98.77;103201.88;4937470;29;20403;-90
2022/01/21 22:27:46;;;;;;;14.75;5.45;;;;;;;3.29;99.29;103247.78;4936850;29;20130;-89
2022/01/21 22:47:48;;;;;;;21.08;5.90;;;;;;;3.32;99.56;103258.28;4936811;29;20511;-89
2022/01/21 22:59:48;;;;;;;12.43;4.95;;;;;;;3.06;99.05;103219.91;4936401;29;20408;-90
2022/01/21 23:01:23;;;;;;;19.73;5.40;;;;;;;3.07;99.04;103202.81;4936508;29;20276;-89
2022/01/21 23:03:52;;;;;;;;;;;;;;;3.43;98.94;103265.59;4904671;29;20130;-89
2022/01/21 23:06:22;;;;;;;14.88;5.32;;;;;;;3.26;98.75;103237.25;4919242;29;20607;-89
2022/01/21 23:08:50;;;;;;;14.80;5.82;;;;;;;3.04;98.87;103216.44;4919507;29;20543;-89
2022/01/21 23:11:18;;;;;;;18.55;5.57;;;;;;;3.41;98.76;103267.50;4919286;29;20087;-91
2022/01/21 23:13:59;;;;;;;17.10;5.32;;;;;;;2.87;98.89;103186.31;4918841;29;20504;-92
2022/01/21 23:16:32;;;;;;;10.65;5.60;;;;;;;3.22;98.57;103233.06;4919319;29;20039;-89
2022/01/21 23:19:01;;;;;;;16.30;5.75;;;;;;;3.22;98.89;103222.34;4919058;29;20065;-92
2022/01/21 23:21:29;;;;;;;21.05;6.40;;;;;;;3.21;98.61;103215.28;4919085;29;20031;-89
2022/01/21 23:24:09;;;;;;;18.73;6.20;;;;;;;3.24;98.83;103223.94;4903643;29;20036;-90
2022/01/21 23:26:38;;;;;;;13.88;5.45;;;;;;;2.95;98.35;103162.50;4904843;29;20047;-90
2022/01/21 23:31:34;;;;;;;15.60;5.75;;;;;;;3.31;98.29;103225.25;4923348;29;20103;-89
2022/01/21 23:34:06;;;;;;;17.92;6.25;;;;;;;3.39;98.96;103231.88;4922764;29;20437;-91
2022/01/21 23:36:38;;;;;;;17.83;5.97;;;;;;;3.02;98.81;103170.13;4922958;29;20118;-89
2022/01/21 23:39:28;;;;;;;23.95;6.85;;;;;;;3.54;98.22;103252.25;4907844;29;20035;-89
2022/01/21 23:42:03;;;;;;;13.60;6.15;;;;;;;3.07;98.24;103170.63;4924045;29;20031;-89
2022/01/21 23:44:52;;;;;;;19.83;6.47;;;;;;;3.40;98.77;103228.25;4915330;29;20066;-89
2022/01/21 23:47:29;;;;;;;18.73;6.90;;;;;;;3.28;98.08;103204.00;4925242;29;20060;-90
2022/01/21 23:50:00;;;;;;;17.73;6.72;;;;;;;3.36;98.00;103219.53;4922988;29;20423;-89
2022/01/21 23:52:27;;;;;;;17.47;7.37;;;;;;;3.40;97.87;103220.19;4922833;29;20035;-89
2022/01/21 23:55:04;;;;;;;13.93;6.80;;;;;;;3.11;98.19;103164.09;4922922;29;20036;-89
2022/01/21 23:57:54;;;;;;;19.70;7.18;;;;;;;3.60;98.12;103242.91;4922806;29;20031;-89
